sensor_id;sensor_type;location;lat;lon;timestamp;P1;durP1;ratioP1;P2;durP2;ratioP2
80273;SDS011;69576;51.902;-8.462;2023-06-10T00:02:19;1.10;;;1.00;;
80273;SDS011;69576;51.902;-8.462;2023-06-10T00:04:45;1.73;;;1.63;;
80273;SDS011;69576;51.902;-8.462;2023-06-10T00:07:13;1.73;;;1.63;;
80273;SDS011;69576;51.902;-8.462;2023-06-10T00:09:39;1.92;;;1.63;;
80273;SDS011;69576;51.902;-8.462;2023-06-10T00:12:08;1.90;;;1.50;;
80273;SDS011;69576;51.902;-8.462;2023-06-10T00:14:38;1.15;;;1.08;;
80273;SDS011;69576;51.902;-8.462;2023-06-10T00:17:05;1.65;;;1.55;;
80273;SDS011;69576;51.902;-8.462;2023-06-10T00:19:34;1.50;;;1.40;;
80273;SDS011;69576;51.902;-8.462;2023-06-10T00:22:06;1.17;;;1.08;;
80273;SDS011;69576;51.902;-8.462;2023-06-10T00:24:33;1.42;;;1.33;;
80273;SDS011;69576;51.902;-8.462;2023-06-10T00:27:00;1.30;;;1.20;;
80273;SDS011;69576;51.902;-8.462;2023-06-10T00:29:26;1.63;;;1.52;;
80273;SDS011;69576;51.902;-8.462;2023-06-10T00:31:51;1.10;;;1.00;;
80273;SDS011;69576;51.902;-8.462;2023-06-10T00:34:22;2.15;;;1.88;;
80273;SDS011;69576;51.902;-8.462;2023-06-10T00:36:48;1.95;;;1.85;;
80273;SDS011;69576;51.902;-8.462;2023-06-10T00:39:16;1.63;;;1.42;;
80273;SDS011;69576;51.902;-8.462;2023-06-10T00:41:42;1.58;;;1.48;;
80273;SDS011;69576;51.902;-8.462;2023-06-10T00:44:10;1.95;;;1.77;;
80273;SDS011;69576;51.902;-8.462;2023-06-10T00:46:39;2.30;;;1.42;;
80273;SDS011;69576;51.902;-8.462;2023-06-10T00:49:07;1.55;;;1.45;;
80273;SDS011;69576;51.902;-8.462;2023-06-10T00:51:35;1.10;;;1.05;;
80273;SDS011;69576;51.902;-8.462;2023-06-10T00:54:01;1.05;;;1.05;;
80273;SDS011;69576;51.902;-8.462;2023-06-10T00:56:28;1.13;;;1.05;;
80273;SDS011;69576;51.902;-8.462;2023-06-10T00:58:54;2.28;;;2.08;;
80273;SDS011;69576;51.902;-8.462;2023-06-10T01:01:22;1.75;;;1.65;;
80273;SDS011;69576;51.902;-8.462;2023-06-10T01:03:48;1.65;;;1.55;;
80273;SDS011;69576;51.902;-8.462;2023-06-10T01:06:18;2.38;;;1.65;;
80273;SDS011;69576;51.902;-8.462;2023-06-10T01:11:29;2.00;;;1.80;;
80273;SDS011;69576;51.902;-8.462;2023-06-10T01:14:03;1.77;;;1.50;;
80273;SDS011;69576;51.902;-8.462;2023-06-10T01:16:32;4.22;;;3.10;;
80273;SDS011;69576;51.902;-8.462;2023-06-10T01:19:01;2.47;;;2.22;;
80273;SDS011;69576;51.902;-8.462;2023-06-10T01:21:29;2.95;;;2.38;;
80273;SDS011;69576;51.902;-8.462;2023-06-10T01:23:56;4.30;;;3.33;;
80273;SDS011;69576;51.902;-8.462;2023-06-10T01:26:28;2.42;;;2.10;;
80273;SDS011;69576;51.902;-8.462;2023-06-10T01:29:00;3.45;;;2.40;;
80273;SDS011;69576;51.902;-8.462;2023-06-10T01:31:48;2.97;;;2.67;;
80273;SDS011;69576;51.902;-8.462;2023-06-10T01:34:19;0.98;;;0.98;;
80273;SDS011;69576;51.902;-8.462;2023-06-10T01:36:52;1.85;;;1.33;;
80273;SDS011;69576;51.902;-8.462;2023-06-10T01:39:24;1.50;;;1.40;;
80273;SDS011;69576;51.902;-8.462;2023-06-10T01:41:52;1.55;;;1.45;;
80273;SDS011;69576;51.902;-8.462;2023-06-10T01:44:18;1.35;;;1.25;;
80273;SDS011;69576;51.902;-8.462;2023-06-10T01:46:50;1.52;;;1.42;;
80273;SDS011;69576;51.902;-8.462;2023-06-10T01:51:42;1.27;;;1.17;;
80273;SDS011;69576;51.902;-8.462;2023-06-10T01:54:08;1.13;;;1.13;;
80273;SDS011;69576;51.902;-8.462;2023-06-10T01:56:33;2.17;;;1.48;;
80273;SDS011;69576;51.902;-8.462;2023-06-10T01:58:59;2.05;;;1.73;;
80273;SDS011;69576;51.902;-8.462;2023-06-10T02:01:28;1.15;;;1.15;;
80273;SDS011;69576;51.902;-8.462;2023-06-10T02:03:54;2.65;;;1.25;;
80273;SDS011;69576;51.902;-8.462;2023-06-10T02:06:20;1.58;;;1.45;;
80273;SDS011;69576;51.902;-8.462;2023-06-10T02:08:48;2.10;;;1.75;;
80273;SDS011;69576;51.902;-8.462;2023-06-10T02:11:14;1.52;;;1.23;;
80273;SDS011;69576;51.902;-8.462;2023-06-10T02:13:40;1.38;;;1.10;;
80273;SDS011;69576;51.902;-8.462;2023-06-10T02:16:06;1.70;;;1.48;;
80273;SDS011;69576;51.902;-8.462;2023-06-10T02:18:37;1.67;;;1.58;;
80273;SDS011;69576;51.902;-8.462;2023-06-10T02:21:08;1.25;;;1.17;;
80273;SDS011;69576;51.902;-8.462;2023-06-10T02:23:34;2.33;;;1.90;;
80273;SDS011;69576;51.902;-8.462;2023-06-10T02:26:01;1.80;;;1.67;;
80273;SDS011;69576;51.902;-8.462;2023-06-10T02:28:27;1.25;;;1.00;;
80273;SDS011;69576;51.902;-8.462;2023-06-10T02:30:53;1.42;;;1.33;;
80273;SDS011;69576;51.902;-8.462;2023-06-10T02:33:22;1.10;;;1.02;;
80273;SDS011;69576;51.902;-8.462;2023-06-10T02:35:48;1.92;;;1.13;;
80273;SDS011;69576;51.902;-8.462;2023-06-10T02:38:14;1.77;;;1.48;;
80273;SDS011;69576;51.902;-8.462;2023-06-10T02:40:39;1.45;;;1.08;;
80273;SDS011;69576;51.902;-8.462;2023-06-10T02:43:05;1.67;;;1.27;;
80273;SDS011;69576;51.902;-8.462;2023-06-10T02:45:31;1.63;;;1.52;;
80273;SDS011;69576;51.902;-8.462;2023-06-10T02:47:57;1.27;;;1.17;;
80273;SDS011;69576;51.902;-8.462;2023-06-10T02:50:23;1.48;;;1.38;;
80273;SDS011;69576;51.902;-8.462;2023-06-10T02:52:51;2.70;;;2.17;;
80273;SDS011;69576;51.902;-8.462;2023-06-10T02:55:16;2.28;;;2.08;;
80273;SDS011;69576;51.902;-8.462;2023-06-10T02:57:42;1.13;;;1.10;;
80273;SDS011;69576;51.902;-8.462;2023-06-10T03:00:08;1.73;;;1.63;;
80273;SDS011;69576;51.902;-8.462;2023-06-10T03:02:36;1.65;;;1.55;;
80273;SDS011;69576;51.902;-8.462;2023-06-10T03:05:05;1.77;;;1.65;;
80273;SDS011;69576;51.902;-8.462;2023-06-10T03:07:36;1.27;;;1.25;;
80273;SDS011;69576;51.902;-8.462;2023-06-10T03:12:33;0.82;;;0.80;;
80273;SDS011;69576;51.902;-8.462;2023-06-10T03:15:01;1.67;;;1.58;;
80273;SDS011;69576;51.902;-8.462;2023-06-10T03:17:29;1.98;;;1.85;;
80273;SDS011;69576;51.902;-8.462;2023-06-10T03:19:55;3.72;;;1.73;;
80273;SDS011;69576;51.902;-8.462;2023-06-10T03:22:21;0.88;;;0.80;;
80273;SDS011;69576;51.902;-8.462;2023-06-10T03:24:47;1.75;;;1.65;;
80273;SDS011;69576;51.902;-8.462;2023-06-10T03:27:15;3.08;;;2.42;;
80273;SDS011;69576;51.902;-8.462;2023-06-10T03:29:43;2.83;;;2.38;;
80273;SDS011;69576;51.902;-8.462;2023-06-10T03:32:14;1.48;;;1.38;;
80273;SDS011;69576;51.902;-8.462;2023-06-10T03:34:40;3.70;;;2.55;;
80273;SDS011;69576;51.902;-8.462;2023-06-10T03:37:06;4.05;;;3.22;;
80273;SDS011;69576;51.902;-8.462;2023-06-10T03:39:34;1.30;;;1.20;;
80273;SDS011;69576;51.902;-8.462;2023-06-10T03:42:00;2.38;;;1.98;;
80273;SDS011;69576;51.902;-8.462;2023-06-10T03:44:26;0.88;;;0.88;;
80273;SDS011;69576;51.902;-8.462;2023-06-10T03:46:52;1.63;;;1.45;;
80273;SDS011;69576;51.902;-8.462;2023-06-10T03:49:19;3.33;;;2.45;;
80273;SDS011;69576;51.902;-8.462;2023-06-10T03:51:45;1.95;;;1.85;;
80273;SDS011;69576;51.902;-8.462;2023-06-10T03:54:11;1.90;;;1.80;;
80273;SDS011;69576;51.902;-8.462;2023-06-10T03:56:39;1.92;;;1.83;;
80273;SDS011;69576;51.902;-8.462;2023-06-10T03:59:05;1.52;;;1.42;;
80273;SDS011;69576;51.902;-8.462;2023-06-10T04:01:31;2.03;;;1.83;;
80273;SDS011;69576;51.902;-8.462;2023-06-10T04:04:02;1.80;;;1.65;;
80273;SDS011;69576;51.902;-8.462;2023-06-10T04:06:28;3.95;;;2.92;;
80273;SDS011;69576;51.902;-8.462;2023-06-10T04:08:54;1.90;;;1.80;;
80273;SDS011;69576;51.902;-8.462;2023-06-10T04:11:22;1.80;;;1.70;;
80273;SDS011;69576;51.902;-8.462;2023-06-10T04:13:51;2.17;;;1.98;;
80273;SDS011;69576;51.902;-8.462;2023-06-10T04:16:22;1.42;;;1.13;;
80273;SDS011;69576;51.902;-8.462;2023-06-10T04:18:47;2.13;;;2.03;;
80273;SDS011;69576;51.902;-8.462;2023-06-10T04:21:13;1.40;;;1.33;;
80273;SDS011;69576;51.902;-8.462;2023-06-10T04:23:39;3.30;;;1.98;;
80273;SDS011;69576;51.902;-8.462;2023-06-10T04:26:07;2.58;;;2.22;;
80273;SDS011;69576;51.902;-8.462;2023-06-10T04:28:37;2.58;;;1.83;;
80273;SDS011;69576;51.902;-8.462;2023-06-10T04:31:03;6.75;;;3.47;;
80273;SDS011;69576;51.902;-8.462;2023-06-10T04:33:29;3.95;;;2.58;;
80273;SDS011;69576;51.902;-8.462;2023-06-10T04:35:58;5.43;;;3.90;;
80273;SDS011;69576;51.902;-8.462;2023-06-10T04:38:27;2.35;;;2.10;;
80273;SDS011;69576;51.902;-8.462;2023-06-10T04:40:53;5.28;;;3.50;;
80273;SDS011;69576;51.902;-8.462;2023-06-10T04:43:19;2.50;;;2.28;;
80273;SDS011;69576;51.902;-8.462;2023-06-10T04:45:45;4.07;;;3.10;;
80273;SDS011;69576;51.902;-8.462;2023-06-10T04:48:14;4.68;;;3.28;;
80273;SDS011;69576;51.902;-8.462;2023-06-10T04:50:40;4.95;;;2.67;;
80273;SDS011;69576;51.902;-8.462;2023-06-10T04:53:06;4.45;;;3.35;;
80273;SDS011;69576;51.902;-8.462;2023-06-10T04:55:34;3.97;;;2.80;;
80273;SDS011;69576;51.902;-8.462;2023-06-10T04:58:02;4.00;;;3.03;;
80273;SDS011;69576;51.902;-8.462;2023-06-10T05:00:27;2.80;;;2.55;;
80273;SDS011;69576;51.902;-8.462;2023-06-10T05:02:56;3.45;;;2.72;;
80273;SDS011;69576;51.902;-8.462;2023-06-10T05:05:21;6.18;;;3.75;;
80273;SDS011;69576;51.902;-8.462;2023-06-10T05:07:47;5.85;;;3.10;;
80273;SDS011;69576;51.902;-8.462;2023-06-10T05:10:13;3.00;;;2.72;;
80273;SDS011;69576;51.902;-8.462;2023-06-10T05:12:39;4.30;;;3.35;;
80273;SDS011;69576;51.902;-8.462;2023-06-10T05:15:08;3.97;;;3.40;;
80273;SDS011;69576;51.902;-8.462;2023-06-10T05:20:00;6.32;;;3.97;;
80273;SDS011;69576;51.902;-8.462;2023-06-10T05:22:29;5.10;;;3.80;;
80273;SDS011;69576;51.902;-8.462;2023-06-10T05:24:57;2.40;;;2.13;;
80273;SDS011;69576;51.902;-8.462;2023-06-10T05:27:23;2.58;;;2.38;;
80273;SDS011;69576;51.902;-8.462;2023-06-10T05:29:49;2.67;;;2.47;;
80273;SDS011;69576;51.902;-8.462;2023-06-10T05:32:16;3.00;;;2.17;;
80273;SDS011;69576;51.902;-8.462;2023-06-10T05:34:42;5.22;;;3.55;;
80273;SDS011;69576;51.902;-8.462;2023-06-10T05:37:12;3.35;;;3.05;;
80273;SDS011;69576;51.902;-8.462;2023-06-10T05:39:39;5.03;;;3.20;;
80273;SDS011;69576;51.902;-8.462;2023-06-10T05:42:10;2.25;;;2.05;;
80273;SDS011;69576;51.902;-8.462;2023-06-10T05:44:38;5.47;;;3.92;;
80273;SDS011;69576;51.902;-8.462;2023-06-10T05:47:04;5.75;;;3.50;;
80273;SDS011;69576;51.902;-8.462;2023-06-10T05:49:30;8.90;;;3.58;;
80273;SDS011;69576;51.902;-8.462;2023-06-10T05:51:56;5.30;;;3.78;;
80273;SDS011;69576;51.902;-8.462;2023-06-10T05:54:25;2.58;;;2.38;;
80273;SDS011;69576;51.902;-8.462;2023-06-10T05:56:53;4.47;;;3.22;;
80273;SDS011;69576;51.902;-8.462;2023-06-10T05:59:19;6.15;;;4.10;;
80273;SDS011;69576;51.902;-8.462;2023-06-10T06:01:47;9.68;;;3.85;;
80273;SDS011;69576;51.902;-8.462;2023-06-10T06:04:14;5.95;;;3.45;;
80273;SDS011;69576;51.902;-8.462;2023-06-10T06:06:41;7.07;;;4.15;;
80273;SDS011;69576;51.902;-8.462;2023-06-10T06:09:09;4.97;;;3.35;;
80273;SDS011;69576;51.902;-8.462;2023-06-10T06:11:37;5.97;;;3.97;;
80273;SDS011;69576;51.902;-8.462;2023-06-10T06:14:08;5.75;;;3.92;;
80273;SDS011;69576;51.902;-8.462;2023-06-10T06:16:36;8.18;;;5.03;;
80273;SDS011;69576;51.902;-8.462;2023-06-10T06:19:02;5.35;;;3.47;;
80273;SDS011;69576;51.902;-8.462;2023-06-10T06:21:28;6.00;;;4.05;;
80273;SDS011;69576;51.902;-8.462;2023-06-10T06:23:53;4.65;;;3.40;;
80273;SDS011;69576;51.902;-8.462;2023-06-10T06:26:19;6.97;;;4.45;;
80273;SDS011;69576;51.902;-8.462;2023-06-10T06:28:45;4.25;;;2.53;;
80273;SDS011;69576;51.902;-8.462;2023-06-10T06:31:11;11.38;;;4.38;;
80273;SDS011;69576;51.902;-8.462;2023-06-10T06:33:37;4.70;;;2.95;;
80273;SDS011;69576;51.902;-8.462;2023-06-10T06:36:05;5.72;;;3.70;;
80273;SDS011;69576;51.902;-8.462;2023-06-10T06:38:31;5.57;;;4.03;;
80273;SDS011;69576;51.902;-8.462;2023-06-10T06:40:59;4.43;;;3.83;;
80273;SDS011;69576;51.902;-8.462;2023-06-10T06:43:28;7.75;;;3.80;;
80273;SDS011;69576;51.902;-8.462;2023-06-10T06:45:56;7.90;;;3.90;;
80273;SDS011;69576;51.902;-8.462;2023-06-10T06:50:49;5.38;;;3.97;;
80273;SDS011;69576;51.902;-8.462;2023-06-10T06:53:15;6.80;;;4.70;;
80273;SDS011;69576;51.902;-8.462;2023-06-10T06:55:41;5.43;;;4.07;;
80273;SDS011;69576;51.902;-8.462;2023-06-10T06:58:06;5.57;;;4.35;;
80273;SDS011;69576;51.902;-8.462;2023-06-10T07:00:32;3.72;;;3.42;;
80273;SDS011;69576;51.902;-8.462;2023-06-10T07:02:58;4.45;;;2.97;;
80273;SDS011;69576;51.902;-8.462;2023-06-10T07:05:24;4.03;;;3.13;;
80273;SDS011;69576;51.902;-8.462;2023-06-10T07:07:52;7.80;;;5.03;;
80273;SDS011;69576;51.902;-8.462;2023-06-10T07:10:23;4.78;;;3.85;;
80273;SDS011;69576;51.902;-8.462;2023-06-10T07:12:50;5.53;;;2.97;;
80273;SDS011;69576;51.902;-8.462;2023-06-10T07:15:16;9.95;;;6.18;;
80273;SDS011;69576;51.902;-8.462;2023-06-10T07:17:45;5.00;;;4.10;;
80273;SDS011;69576;51.902;-8.462;2023-06-10T07:20:11;4.40;;;3.97;;
80273;SDS011;69576;51.902;-8.462;2023-06-10T07:22:39;4.60;;;3.28;;
80273;SDS011;69576;51.902;-8.462;2023-06-10T07:27:32;8.30;;;5.55;;
80273;SDS011;69576;51.902;-8.462;2023-06-10T07:29:58;7.97;;;4.82;;
80273;SDS011;69576;51.902;-8.462;2023-06-10T07:32:25;7.32;;;3.95;;
80273;SDS011;69576;51.902;-8.462;2023-06-10T07:34:51;9.48;;;5.78;;
80273;SDS011;69576;51.902;-8.462;2023-06-10T07:37:18;6.03;;;4.03;;
80273;SDS011;69576;51.902;-8.462;2023-06-10T07:39:46;8.20;;;4.78;;
80273;SDS011;69576;51.902;-8.462;2023-06-10T07:42:12;4.28;;;3.33;;
80273;SDS011;69576;51.902;-8.462;2023-06-10T07:44:40;4.18;;;3.78;;
80273;SDS011;69576;51.902;-8.462;2023-06-10T07:47:08;12.65;;;6.15;;
80273;SDS011;69576;51.902;-8.462;2023-06-10T07:49:36;4.38;;;3.40;;
80273;SDS011;69576;51.902;-8.462;2023-06-10T07:52:04;6.18;;;4.63;;
80273;SDS011;69576;51.902;-8.462;2023-06-10T07:54:30;5.97;;;3.45;;
80273;SDS011;69576;51.902;-8.462;2023-06-10T07:56:56;6.93;;;4.40;;
80273;SDS011;69576;51.902;-8.462;2023-06-10T07:59:24;5.40;;;4.45;;
80273;SDS011;69576;51.902;-8.462;2023-06-10T08:01:54;9.88;;;4.78;;
80273;SDS011;69576;51.902;-8.462;2023-06-10T08:04:22;13.75;;;7.65;;
80273;SDS011;69576;51.902;-8.462;2023-06-10T08:06:48;5.15;;;3.90;;
80273;SDS011;69576;51.902;-8.462;2023-06-10T08:09:14;5.18;;;3.90;;
80273;SDS011;69576;51.902;-8.462;2023-06-10T08:11:42;6.32;;;4.07;;
80273;SDS011;69576;51.902;-8.462;2023-06-10T08:14:10;6.63;;;4.53;;
80273;SDS011;69576;51.902;-8.462;2023-06-10T08:16:38;5.35;;;4.57;;
80273;SDS011;69576;51.902;-8.462;2023-06-10T08:19:06;4.55;;;3.38;;
80273;SDS011;69576;51.902;-8.462;2023-06-10T08:21:35;11.07;;;5.05;;
80273;SDS011;69576;51.902;-8.462;2023-06-10T08:24:07;6.72;;;3.80;;
80273;SDS011;69576;51.902;-8.462;2023-06-10T08:26:34;8.68;;;5.22;;
80273;SDS011;69576;51.902;-8.462;2023-06-10T08:29:00;7.63;;;4.57;;
80273;SDS011;69576;51.902;-8.462;2023-06-10T08:31:26;7.85;;;4.68;;
80273;SDS011;69576;51.902;-8.462;2023-06-10T08:33:54;6.70;;;4.22;;
80273;SDS011;69576;51.902;-8.462;2023-06-10T08:36:20;11.10;;;5.25;;
80273;SDS011;69576;51.902;-8.462;2023-06-10T08:38:46;5.43;;;3.92;;
80273;SDS011;69576;51.902;-8.462;2023-06-10T08:41:12;4.72;;;3.30;;
80273;SDS011;69576;51.902;-8.462;2023-06-10T08:43:44;8.98;;;4.75;;
80273;SDS011;69576;51.902;-8.462;2023-06-10T08:46:17;7.53;;;4.72;;
80273;SDS011;69576;51.902;-8.462;2023-06-10T08:48:43;9.60;;;5.10;;
80273;SDS011;69576;51.902;-8.462;2023-06-10T08:51:12;6.40;;;3.63;;
80273;SDS011;69576;51.902;-8.462;2023-06-10T08:53:48;6.90;;;4.20;;
80273;SDS011;69576;51.902;-8.462;2023-06-10T08:56:24;4.05;;;3.63;;
80273;SDS011;69576;51.902;-8.462;2023-06-10T08:58:55;10.52;;;5.32;;
80273;SDS011;69576;51.902;-8.462;2023-06-10T09:01:23;8.88;;;5.57;;
80273;SDS011;69576;51.902;-8.462;2023-06-10T09:03:50;12.55;;;6.45;;
80273;SDS011;69576;51.902;-8.462;2023-06-10T09:06:17;14.55;;;5.53;;
80273;SDS011;69576;51.902;-8.462;2023-06-10T09:08:43;7.93;;;5.85;;
80273;SDS011;69576;51.902;-8.462;2023-06-10T09:11:09;4.88;;;4.40;;
80273;SDS011;69576;51.902;-8.462;2023-06-10T09:13:35;4.40;;;4.00;;
80273;SDS011;69576;51.902;-8.462;2023-06-10T09:16:01;4.53;;;3.55;;
80273;SDS011;69576;51.902;-8.462;2023-06-10T09:18:29;7.22;;;4.43;;
80273;SDS011;69576;51.902;-8.462;2023-06-10T09:21:00;5.95;;;4.70;;
80273;SDS011;69576;51.902;-8.462;2023-06-10T09:23:26;8.00;;;5.10;;
80273;SDS011;69576;51.902;-8.462;2023-06-10T09:25:58;6.97;;;4.30;;
80273;SDS011;69576;51.902;-8.462;2023-06-10T09:28:28;9.48;;;5.32;;
80273;SDS011;69576;51.902;-8.462;2023-06-10T09:31:04;4.40;;;3.75;;
80273;SDS011;69576;51.902;-8.462;2023-06-10T09:33:31;6.10;;;4.75;;
80273;SDS011;69576;51.902;-8.462;2023-06-10T09:35:57;4.00;;;3.70;;
80273;SDS011;69576;51.902;-8.462;2023-06-10T09:38:33;6.38;;;4.57;;
80273;SDS011;69576;51.902;-8.462;2023-06-10T09:41:03;6.78;;;4.38;;
80273;SDS011;69576;51.902;-8.462;2023-06-10T09:43:38;3.53;;;3.08;;
80273;SDS011;69576;51.902;-8.462;2023-06-10T09:46:05;7.60;;;3.72;;
80273;SDS011;69576;51.902;-8.462;2023-06-10T09:48:40;3.33;;;2.65;;
80273;SDS011;69576;51.902;-8.462;2023-06-10T09:53:37;6.10;;;3.55;;
80273;SDS011;69576;51.902;-8.462;2023-06-10T09:56:05;7.00;;;5.15;;
80273;SDS011;69576;51.902;-8.462;2023-06-10T10:01:08;4.22;;;3.28;;
80273;SDS011;69576;51.902;-8.462;2023-06-10T10:03:45;5.95;;;4.28;;
80273;SDS011;69576;51.902;-8.462;2023-06-10T10:06:15;2.55;;;2.35;;
80273;SDS011;69576;51.902;-8.462;2023-06-10T10:08:42;3.08;;;2.53;;
80273;SDS011;69576;51.902;-8.462;2023-06-10T10:11:08;5.20;;;3.45;;
80273;SDS011;69576;51.902;-8.462;2023-06-10T10:13:35;6.15;;;3.10;;
80273;SDS011;69576;51.902;-8.462;2023-06-10T10:16:04;4.32;;;3.55;;
80273;SDS011;69576;51.902;-8.462;2023-06-10T10:18:41;4.00;;;2.80;;
80273;SDS011;69576;51.902;-8.462;2023-06-10T10:21:11;5.03;;;3.83;;
80273;SDS011;69576;51.902;-8.462;2023-06-10T10:23:48;4.80;;;2.97;;
80273;SDS011;69576;51.902;-8.462;2023-06-10T10:26:19;2.88;;;2.58;;
80273;SDS011;69576;51.902;-8.462;2023-06-10T10:29:05;3.97;;;3.10;;
80273;SDS011;69576;51.902;-8.462;2023-06-10T10:31:38;6.53;;;3.83;;
80273;SDS011;69576;51.902;-8.462;2023-06-10T10:34:13;6.63;;;4.35;;
80273;SDS011;69576;51.902;-8.462;2023-06-10T10:36:44;6.50;;;4.43;;
80273;SDS011;69576;51.902;-8.462;2023-06-10T10:39:11;5.43;;;4.55;;
80273;SDS011;69576;51.902;-8.462;2023-06-10T10:41:37;5.50;;;3.85;;
80273;SDS011;69576;51.902;-8.462;2023-06-10T10:44:05;7.20;;;3.88;;
80273;SDS011;69576;51.902;-8.462;2023-06-10T10:46:42;4.65;;;3.30;;
80273;SDS011;69576;51.902;-8.462;2023-06-10T10:49:10;4.05;;;3.55;;
80273;SDS011;69576;51.902;-8.462;2023-06-10T10:54:31;3.67;;;3.28;;
80273;SDS011;69576;51.902;-8.462;2023-06-10T11:02:19;9.43;;;4.63;;
80273;SDS011;69576;51.902;-8.462;2023-06-10T11:04:57;3.10;;;2.80;;
80273;SDS011;69576;51.902;-8.462;2023-06-10T11:07:25;7.00;;;4.30;;
80273;SDS011;69576;51.902;-8.462;2023-06-10T11:09:58;3.10;;;2.70;;
80273;SDS011;69576;51.902;-8.462;2023-06-10T11:15:12;5.40;;;3.95;;
80273;SDS011;69576;51.902;-8.462;2023-06-10T11:18:24;3.08;;;2.40;;
80273;SDS011;69576;51.902;-8.462;2023-06-10T11:28:37;5.68;;;4.07;;
80273;SDS011;69576;51.902;-8.462;2023-06-10T11:31:06;5.38;;;3.90;;
80273;SDS011;69576;51.902;-8.462;2023-06-10T11:33:34;3.10;;;2.80;;
80273;SDS011;69576;51.902;-8.462;2023-06-10T11:36:06;5.03;;;3.28;;
80273;SDS011;69576;51.902;-8.462;2023-06-10T11:38:35;2.92;;;2.20;;
80273;SDS011;69576;51.902;-8.462;2023-06-10T11:41:01;4.40;;;2.90;;
80273;SDS011;69576;51.902;-8.462;2023-06-10T11:43:27;4.20;;;2.70;;
80273;SDS011;69576;51.902;-8.462;2023-06-10T11:46:01;3.03;;;2.20;;
80273;SDS011;69576;51.902;-8.462;2023-06-10T11:48:27;3.92;;;2.58;;
80273;SDS011;69576;51.902;-8.462;2023-06-10T11:50:56;3.13;;;2.30;;
80273;SDS011;69576;51.902;-8.462;2023-06-10T11:53:22;2.95;;;2.28;;
80273;SDS011;69576;51.902;-8.462;2023-06-10T11:55:50;1.42;;;1.27;;
80273;SDS011;69576;51.902;-8.462;2023-06-10T11:58:20;2.10;;;1.48;;
80273;SDS011;69576;51.902;-8.462;2023-06-10T12:00:49;4.07;;;3.67;;
80273;SDS011;69576;51.902;-8.462;2023-06-10T12:03:23;3.60;;;2.03;;
80273;SDS011;69576;51.902;-8.462;2023-06-10T12:06:01;3.00;;;2.10;;
80273;SDS011;69576;51.902;-8.462;2023-06-10T12:08:29;1.35;;;1.25;;
80273;SDS011;69576;51.902;-8.462;2023-06-10T12:10:55;2.33;;;2.03;;
80273;SDS011;69576;51.902;-8.462;2023-06-10T12:13:22;3.25;;;2.38;;
80273;SDS011;69576;51.902;-8.462;2023-06-10T12:15:52;2.33;;;1.98;;
80273;SDS011;69576;51.902;-8.462;2023-06-10T12:18:24;4.10;;;2.25;;
80273;SDS011;69576;51.902;-8.462;2023-06-10T12:20:50;2.50;;;2.30;;
80273;SDS011;69576;51.902;-8.462;2023-06-10T12:23:16;2.30;;;1.98;;
80273;SDS011;69576;51.902;-8.462;2023-06-10T12:25:50;4.88;;;3.30;;
80273;SDS011;69576;51.902;-8.462;2023-06-10T12:28:19;4.63;;;2.88;;
80273;SDS011;69576;51.902;-8.462;2023-06-10T12:30:52;2.92;;;2.35;;
80273;SDS011;69576;51.902;-8.462;2023-06-10T12:33:32;4.53;;;3.72;;
80273;SDS011;69576;51.902;-8.462;2023-06-10T12:35:58;4.40;;;3.88;;
80273;SDS011;69576;51.902;-8.462;2023-06-10T12:38:25;4.90;;;3.33;;
80273;SDS011;69576;51.902;-8.462;2023-06-10T12:40:57;4.00;;;3.38;;
80273;SDS011;69576;51.902;-8.462;2023-06-10T12:43:28;5.25;;;3.78;;
80273;SDS011;69576;51.902;-8.462;2023-06-10T12:46:07;7.28;;;4.40;;
80273;SDS011;69576;51.902;-8.462;2023-06-10T12:48:34;4.90;;;3.53;;
80273;SDS011;69576;51.902;-8.462;2023-06-10T12:51:14;3.63;;;3.15;;
80273;SDS011;69576;51.902;-8.462;2023-06-10T12:53:40;5.22;;;4.30;;
80273;SDS011;69576;51.902;-8.462;2023-06-10T12:56:06;4.35;;;2.65;;
80273;SDS011;69576;51.902;-8.462;2023-06-10T12:58:34;7.72;;;4.45;;
80273;SDS011;69576;51.902;-8.462;2023-06-10T13:01:00;7.13;;;4.45;;
80273;SDS011;69576;51.902;-8.462;2023-06-10T13:03:26;6.20;;;4.70;;
80273;SDS011;69576;51.902;-8.462;2023-06-10T13:05:51;6.03;;;4.63;;
80273;SDS011;69576;51.902;-8.462;2023-06-10T13:10:46;3.55;;;3.20;;
80273;SDS011;69576;51.902;-8.462;2023-06-10T13:13:17;8.20;;;4.25;;
80273;SDS011;69576;51.902;-8.462;2023-06-10T13:15:43;2.55;;;2.30;;
80273;SDS011;69576;51.902;-8.462;2023-06-10T13:18:11;4.07;;;3.13;;
80273;SDS011;69576;51.902;-8.462;2023-06-10T13:20:37;8.43;;;4.88;;
80273;SDS011;69576;51.902;-8.462;2023-06-10T13:23:06;4.25;;;3.28;;
80273;SDS011;69576;51.902;-8.462;2023-06-10T13:25:34;3.45;;;3.15;;
80273;SDS011;69576;51.902;-8.462;2023-06-10T13:28:03;6.07;;;4.22;;
80273;SDS011;69576;51.902;-8.462;2023-06-10T13:30:28;3.95;;;3.65;;
80273;SDS011;69576;51.902;-8.462;2023-06-10T13:32:57;2.50;;;2.28;;
80273;SDS011;69576;51.902;-8.462;2023-06-10T13:35:23;3.92;;;3.53;;
80273;SDS011;69576;51.902;-8.462;2023-06-10T13:37:48;4.85;;;3.75;;
80273;SDS011;69576;51.902;-8.462;2023-06-10T13:40:15;4.32;;;3.08;;
80273;SDS011;69576;51.902;-8.462;2023-06-10T13:42:41;4.32;;;3.47;;
80273;SDS011;69576;51.902;-8.462;2023-06-10T13:45:07;4.40;;;3.42;;
80273;SDS011;69576;51.902;-8.462;2023-06-10T13:47:36;4.22;;;3.42;;
80273;SDS011;69576;51.902;-8.462;2023-06-10T13:50:06;6.18;;;3.95;;
80273;SDS011;69576;51.902;-8.462;2023-06-10T13:52:32;3.72;;;2.67;;
80273;SDS011;69576;51.902;-8.462;2023-06-10T13:54:58;6.20;;;3.53;;
80273;SDS011;69576;51.902;-8.462;2023-06-10T13:57:23;2.47;;;2.28;;
80273;SDS011;69576;51.902;-8.462;2023-06-10T13:59:58;4.72;;;3.85;;
80273;SDS011;69576;51.902;-8.462;2023-06-10T14:02:24;4.85;;;3.00;;
80273;SDS011;69576;51.902;-8.462;2023-06-10T14:04:53;2.95;;;2.75;;
80273;SDS011;69576;51.902;-8.462;2023-06-10T14:07:19;6.20;;;3.30;;
80273;SDS011;69576;51.902;-8.462;2023-06-10T14:09:47;8.38;;;4.30;;
80273;SDS011;69576;51.902;-8.462;2023-06-10T14:12:13;4.60;;;3.17;;
80273;SDS011;69576;51.902;-8.462;2023-06-10T14:14:39;6.10;;;3.28;;
80273;SDS011;69576;51.902;-8.462;2023-06-10T14:17:05;5.00;;;2.83;;
80273;SDS011;69576;51.902;-8.462;2023-06-10T14:19:30;6.15;;;3.70;;
80273;SDS011;69576;51.902;-8.462;2023-06-10T14:21:56;4.40;;;3.30;;
80273;SDS011;69576;51.902;-8.462;2023-06-10T14:24:22;3.75;;;2.65;;
80273;SDS011;69576;51.902;-8.462;2023-06-10T14:26:48;6.72;;;4.00;;
80273;SDS011;69576;51.902;-8.462;2023-06-10T14:29:14;5.45;;;3.17;;
80273;SDS011;69576;51.902;-8.462;2023-06-10T14:31:40;3.40;;;2.55;;
80273;SDS011;69576;51.902;-8.462;2023-06-10T14:34:08;5.15;;;3.28;;
80273;SDS011;69576;51.902;-8.462;2023-06-10T14:36:34;4.40;;;2.90;;
80273;SDS011;69576;51.902;-8.462;2023-06-10T14:39:00;4.47;;;2.55;;
80273;SDS011;69576;51.902;-8.462;2023-06-10T14:41:26;4.82;;;2.88;;
80273;SDS011;69576;51.902;-8.462;2023-06-10T14:43:52;4.15;;;3.17;;
80273;SDS011;69576;51.902;-8.462;2023-06-10T14:46:18;4.43;;;3.40;;
80273;SDS011;69576;51.902;-8.462;2023-06-10T14:48:46;6.18;;;2.88;;
80273;SDS011;69576;51.902;-8.462;2023-06-10T14:51:15;5.72;;;2.85;;
80273;SDS011;69576;51.902;-8.462;2023-06-10T14:53:41;6.18;;;3.78;;
80273;SDS011;69576;51.902;-8.462;2023-06-10T14:56:06;5.72;;;3.40;;
80273;SDS011;69576;51.902;-8.462;2023-06-10T14:58:32;1.88;;;1.55;;
80273;SDS011;69576;51.902;-8.462;2023-06-10T15:00:58;3.38;;;2.58;;
80273;SDS011;69576;51.902;-8.462;2023-06-10T15:03:24;3.95;;;3.28;;
80273;SDS011;69576;51.902;-8.462;2023-06-10T15:05:54;5.90;;;3.67;;
80273;SDS011;69576;51.902;-8.462;2023-06-10T15:08:20;3.70;;;2.90;;
80273;SDS011;69576;51.902;-8.462;2023-06-10T15:10:46;4.85;;;3.70;;
80273;SDS011;69576;51.902;-8.462;2023-06-10T15:13:13;3.50;;;2.50;;
80273;SDS011;69576;51.902;-8.462;2023-06-10T15:15:39;4.80;;;3.03;;
80273;SDS011;69576;51.902;-8.462;2023-06-10T15:18:05;3.38;;;2.47;;
80273;SDS011;69576;51.902;-8.462;2023-06-10T15:20:31;2.13;;;1.92;;